sensor_id;sensor_type;location;lat;lon;timestamp;P1;durP1;ratioP1;P2;durP2;ratioP2
4043;SDS011;2036;51.578;7.108;2023-11-21T00:01:37;27.13;;;11.60;;
4043;SDS011;2036;51.578;7.108;2023-11-21T00:04:02;20.70;;;11.70;;
4043;SDS011;2036;51.578;7.108;2023-11-21T00:06:28;28.77;;;11.80;;
4043;SDS011;2036;51.578;7.108;2023-11-21T00:08:55;28.37;;;13.57;;
4043;SDS011;2036;51.578;7.108;2023-11-21T00:11:21;24.90;;;11.87;;
4043;SDS011;2036;51.578;7.108;2023-11-21T00:13:47;21.10;;;11.20;;
4043;SDS011;2036;51.578;7.108;2023-11-21T00:16:13;19.67;;;11.47;;
4043;SDS011;2036;51.578;7.108;2023-11-21T00:18:39;19.90;;;12.07;;
4043;SDS011;2036;51.578;7.108;2023-11-21T00:21:04;22.60;;;11.90;;
4043;SDS011;2036;51.578;7.108;2023-11-21T00:23:31;25.80;;;12.60;;
4043;SDS011;2036;51.578;7.108;2023-11-21T00:25:56;29.37;;;11.63;;
4043;SDS011;2036;51.578;7.108;2023-11-21T00:28:22;28.63;;;12.67;;
4043;SDS011;2036;51.578;7.108;2023-11-21T00:30:50;29.47;;;11.03;;
4043;SDS011;2036;51.578;7.108;2023-11-21T00:33:15;25.77;;;10.50;;
4043;SDS011;2036;51.578;7.108;2023-11-21T00:35:41;26.60;;;9.17;;
4043;SDS011;2036;51.578;7.108;2023-11-21T00:38:07;22.60;;;9.33;;
4043;SDS011;2036;51.578;7.108;2023-11-21T00:40:33;23.17;;;10.03;;
4043;SDS011;2036;51.578;7.108;2023-11-21T00:42:59;21.93;;;9.57;;
4043;SDS011;2036;51.578;7.108;2023-11-21T00:45:25;22.33;;;9.87;;
4043;SDS011;2036;51.578;7.108;2023-11-21T00:47:51;21.10;;;9.93;;
4043;SDS011;2036;51.578;7.108;2023-11-21T00:50:17;24.63;;;9.20;;
4043;SDS011;2036;51.578;7.108;2023-11-21T00:52:44;26.50;;;10.40;;
4043;SDS011;2036;51.578;7.108;2023-11-21T00:55:10;25.10;;;11.43;;
4043;SDS011;2036;51.578;7.108;2023-11-21T00:57:37;24.67;;;10.57;;
4043;SDS011;2036;51.578;7.108;2023-11-21T01:00:03;21.93;;;10.10;;
4043;SDS011;2036;51.578;7.108;2023-11-21T01:02:38;25.73;;;10.67;;
4043;SDS011;2036;51.578;7.108;2023-11-21T01:05:04;29.07;;;10.80;;
4043;SDS011;2036;51.578;7.108;2023-11-21T01:07:32;20.53;;;11.00;;
4043;SDS011;2036;51.578;7.108;2023-11-21T01:09:58;20.23;;;11.53;;
4043;SDS011;2036;51.578;7.108;2023-11-21T01:12:24;28.93;;;11.90;;
4043;SDS011;2036;51.578;7.108;2023-11-21T01:14:50;21.60;;;12.10;;
4043;SDS011;2036;51.578;7.108;2023-11-21T01:17:16;24.83;;;12.10;;
4043;SDS011;2036;51.578;7.108;2023-11-21T01:19:43;32.70;;;13.33;;
4043;SDS011;2036;51.578;7.108;2023-11-21T01:22:09;23.80;;;12.20;;
4043;SDS011;2036;51.578;7.108;2023-11-21T01:24:36;34.07;;;13.20;;
4043;SDS011;2036;51.578;7.108;2023-11-21T01:27:02;27.47;;;11.73;;
4043;SDS011;2036;51.578;7.108;2023-11-21T01:29:29;23.93;;;12.27;;
4043;SDS011;2036;51.578;7.108;2023-11-21T01:31:55;34.03;;;13.10;;
4043;SDS011;2036;51.578;7.108;2023-11-21T01:34:22;30.77;;;12.23;;
4043;SDS011;2036;51.578;7.108;2023-11-21T01:36:48;29.43;;;15.10;;
4043;SDS011;2036;51.578;7.108;2023-11-21T01:39:15;27.40;;;14.83;;
4043;SDS011;2036;51.578;7.108;2023-11-21T01:41:48;23.53;;;12.70;;
4043;SDS011;2036;51.578;7.108;2023-11-21T01:44:16;34.77;;;13.83;;
4043;SDS011;2036;51.578;7.108;2023-11-21T01:46:41;27.63;;;13.80;;
4043;SDS011;2036;51.578;7.108;2023-11-21T01:49:07;32.60;;;13.80;;
4043;SDS011;2036;51.578;7.108;2023-11-21T01:51:38;23.20;;;13.20;;
4043;SDS011;2036;51.578;7.108;2023-11-21T01:54:08;29.50;;;13.47;;
4043;SDS011;2036;51.578;7.108;2023-11-21T01:56:36;33.40;;;14.00;;
4043;SDS011;2036;51.578;7.108;2023-11-21T01:59:03;30.83;;;14.93;;
4043;SDS011;2036;51.578;7.108;2023-11-21T02:01:28;33.13;;;14.93;;
4043;SDS011;2036;51.578;7.108;2023-11-21T02:03:54;30.13;;;15.20;;
4043;SDS011;2036;51.578;7.108;2023-11-21T02:06:20;29.10;;;14.37;;
4043;SDS011;2036;51.578;7.108;2023-11-21T02:08:47;32.20;;;15.40;;
4043;SDS011;2036;51.578;7.108;2023-11-21T02:11:12;34.60;;;15.17;;
4043;SDS011;2036;51.578;7.108;2023-11-21T02:13:38;33.63;;;15.40;;
4043;SDS011;2036;51.578;7.108;2023-11-21T02:16:08;25.53;;;13.50;;
4043;SDS011;2036;51.578;7.108;2023-11-21T02:18:37;28.27;;;14.83;;
4043;SDS011;2036;51.578;7.108;2023-11-21T02:21:04;31.77;;;14.40;;
4043;SDS011;2036;51.578;7.108;2023-11-21T02:23:30;28.03;;;14.93;;
4043;SDS011;2036;51.578;7.108;2023-11-21T02:25:56;27.93;;;14.23;;
4043;SDS011;2036;51.578;7.108;2023-11-21T02:28:22;28.37;;;13.97;;
4043;SDS011;2036;51.578;7.108;2023-11-21T02:30:53;29.57;;;14.37;;
4043;SDS011;2036;51.578;7.108;2023-11-21T02:33:24;28.77;;;14.43;;
4043;SDS011;2036;51.578;7.108;2023-11-21T02:35:49;30.37;;;15.10;;
4043;SDS011;2036;51.578;7.108;2023-11-21T02:38:19;28.70;;;14.90;;
4043;SDS011;2036;51.578;7.108;2023-11-21T02:40:48;29.83;;;15.37;;
4043;SDS011;2036;51.578;7.108;2023-11-21T02:43:14;33.30;;;15.50;;
4043;SDS011;2036;51.578;7.108;2023-11-21T02:45:39;32.17;;;16.93;;
4043;SDS011;2036;51.578;7.108;2023-11-21T02:48:06;30.97;;;15.03;;
4043;SDS011;2036;51.578;7.108;2023-11-21T02:50:32;30.07;;;15.03;;
4043;SDS011;2036;51.578;7.108;2023-11-21T02:53:00;32.33;;;16.53;;
4043;SDS011;2036;51.578;7.108;2023-11-21T02:55:26;32.07;;;16.30;;
4043;SDS011;2036;51.578;7.108;2023-11-21T02:57:53;33.10;;;16.13;;
4043;SDS011;2036;51.578;7.108;2023-11-21T03:00:21;35.60;;;17.17;;
4043;SDS011;2036;51.578;7.108;2023-11-21T03:02:49;33.53;;;16.70;;
4043;SDS011;2036;51.578;7.108;2023-11-21T03:05:15;33.60;;;17.00;;
4043;SDS011;2036;51.578;7.108;2023-11-21T03:07:40;33.17;;;17.23;;
4043;SDS011;2036;51.578;7.108;2023-11-21T03:10:07;31.40;;;16.30;;
4043;SDS011;2036;51.578;7.108;2023-11-21T03:12:34;34.10;;;17.60;;
4043;SDS011;2036;51.578;7.108;2023-11-21T03:15:00;38.37;;;19.10;;
4043;SDS011;2036;51.578;7.108;2023-11-21T03:17:27;33.10;;;18.53;;
4043;SDS011;2036;51.578;7.108;2023-11-21T03:19:54;36.50;;;18.70;;
4043;SDS011;2036;51.578;7.108;2023-11-21T03:22:20;36.03;;;17.60;;
4043;SDS011;2036;51.578;7.108;2023-11-21T03:24:45;31.03;;;17.50;;
4043;SDS011;2036;51.578;7.108;2023-11-21T03:27:11;34.80;;;18.07;;
4043;SDS011;2036;51.578;7.108;2023-11-21T03:29:37;37.10;;;16.30;;
4043;SDS011;2036;51.578;7.108;2023-11-21T03:32:03;31.77;;;18.10;;
4043;SDS011;2036;51.578;7.108;2023-11-21T03:34:29;32.03;;;16.90;;
4043;SDS011;2036;51.578;7.108;2023-11-21T03:36:55;34.13;;;16.70;;
4043;SDS011;2036;51.578;7.108;2023-11-21T03:39:20;32.43;;;18.00;;
4043;SDS011;2036;51.578;7.108;2023-11-21T03:41:47;36.70;;;18.50;;
4043;SDS011;2036;51.578;7.108;2023-11-21T03:44:13;30.00;;;16.83;;
4043;SDS011;2036;51.578;7.108;2023-11-21T03:46:39;33.93;;;16.90;;
4043;SDS011;2036;51.578;7.108;2023-11-21T03:49:05;40.03;;;18.60;;
4043;SDS011;2036;51.578;7.108;2023-11-21T03:51:32;36.90;;;17.50;;
4043;SDS011;2036;51.578;7.108;2023-11-21T03:53:59;37.63;;;17.70;;
4043;SDS011;2036;51.578;7.108;2023-11-21T03:56:24;36.70;;;18.80;;
4043;SDS011;2036;51.578;7.108;2023-11-21T03:58:50;38.10;;;18.03;;
4043;SDS011;2036;51.578;7.108;2023-11-21T04:01:22;36.10;;;18.00;;
4043;SDS011;2036;51.578;7.108;2023-11-21T04:03:49;40.23;;;20.23;;
4043;SDS011;2036;51.578;7.108;2023-11-21T04:06:16;38.00;;;18.37;;
4043;SDS011;2036;51.578;7.108;2023-11-21T04:08:43;38.67;;;18.40;;
4043;SDS011;2036;51.578;7.108;2023-11-21T04:11:10;40.63;;;18.30;;
4043;SDS011;2036;51.578;7.108;2023-11-21T04:13:40;35.67;;;17.83;;
4043;SDS011;2036;51.578;7.108;2023-11-21T04:16:07;34.43;;;18.23;;
4043;SDS011;2036;51.578;7.108;2023-11-21T04:18:35;35.20;;;17.60;;
4043;SDS011;2036;51.578;7.108;2023-11-21T04:21:02;35.50;;;17.27;;
4043;SDS011;2036;51.578;7.108;2023-11-21T04:23:31;29.70;;;16.37;;
4043;SDS011;2036;51.578;7.108;2023-11-21T04:25:58;33.60;;;17.83;;
4043;SDS011;2036;51.578;7.108;2023-11-21T04:28:24;42.93;;;17.83;;
4043;SDS011;2036;51.578;7.108;2023-11-21T04:30:50;30.80;;;15.63;;
4043;SDS011;2036;51.578;7.108;2023-11-21T04:33:16;33.83;;;18.13;;
4043;SDS011;2036;51.578;7.108;2023-11-21T04:35:42;32.50;;;16.70;;
4043;SDS011;2036;51.578;7.108;2023-11-21T04:38:08;36.93;;;16.63;;
4043;SDS011;2036;51.578;7.108;2023-11-21T04:40:33;34.07;;;16.33;;
4043;SDS011;2036;51.578;7.108;2023-11-21T04:42:59;24.67;;;14.30;;
4043;SDS011;2036;51.578;7.108;2023-11-21T04:45:26;29.67;;;14.37;;
4043;SDS011;2036;51.578;7.108;2023-11-21T04:47:52;31.10;;;16.13;;
4043;SDS011;2036;51.578;7.108;2023-11-21T04:50:18;33.87;;;17.30;;
4043;SDS011;2036;51.578;7.108;2023-11-21T04:52:44;41.20;;;16.37;;
4043;SDS011;2036;51.578;7.108;2023-11-21T04:55:10;35.70;;;16.13;;
4043;SDS011;2036;51.578;7.108;2023-11-21T04:57:36;32.20;;;15.87;;
4043;SDS011;2036;51.578;7.108;2023-11-21T05:00:02;40.00;;;18.50;;
4043;SDS011;2036;51.578;7.108;2023-11-21T05:02:31;37.17;;;18.40;;
4043;SDS011;2036;51.578;7.108;2023-11-21T05:04:59;34.70;;;17.73;;
4043;SDS011;2036;51.578;7.108;2023-11-21T05:07:25;34.23;;;18.27;;
4043;SDS011;2036;51.578;7.108;2023-11-21T05:09:54;39.77;;;18.40;;
4043;SDS011;2036;51.578;7.108;2023-11-21T05:12:21;38.53;;;18.93;;
4043;SDS011;2036;51.578;7.108;2023-11-21T05:14:48;45.87;;;20.20;;
4043;SDS011;2036;51.578;7.108;2023-11-21T05:17:15;41.93;;;18.70;;
4043;SDS011;2036;51.578;7.108;2023-11-21T05:19:40;41.07;;;19.70;;
4043;SDS011;2036;51.578;7.108;2023-11-21T05:22:06;39.70;;;19.93;;
4043;SDS011;2036;51.578;7.108;2023-11-21T05:24:33;38.30;;;19.60;;
4043;SDS011;2036;51.578;7.108;2023-11-21T05:27:00;40.87;;;20.03;;
4043;SDS011;2036;51.578;7.108;2023-11-21T05:29:25;37.47;;;18.57;;
4043;SDS011;2036;51.578;7.108;2023-11-21T05:31:52;37.00;;;17.23;;
4043;SDS011;2036;51.578;7.108;2023-11-21T05:34:18;33.13;;;17.90;;
4043;SDS011;2036;51.578;7.108;2023-11-21T05:36:45;38.47;;;18.27;;
4043;SDS011;2036;51.578;7.108;2023-11-21T05:39:11;33.60;;;17.30;;
4043;SDS011;2036;51.578;7.108;2023-11-21T05:41:38;34.93;;;19.10;;
4043;SDS011;2036;51.578;7.108;2023-11-21T05:44:03;47.50;;;22.10;;
4043;SDS011;2036;51.578;7.108;2023-11-21T05:46:30;42.53;;;21.40;;
4043;SDS011;2036;51.578;7.108;2023-11-21T05:48:56;47.60;;;21.10;;
4043;SDS011;2036;51.578;7.108;2023-11-21T05:51:21;38.60;;;20.00;;
4043;SDS011;2036;51.578;7.108;2023-11-21T05:53:48;40.73;;;19.83;;
4043;SDS011;2036;51.578;7.108;2023-11-21T05:56:14;40.50;;;21.57;;
4043;SDS011;2036;51.578;7.108;2023-11-21T05:58:39;37.77;;;19.57;;
4043;SDS011;2036;51.578;7.108;2023-11-21T06:01:05;37.63;;;20.10;;
4043;SDS011;2036;51.578;7.108;2023-11-21T06:03:34;36.47;;;20.27;;
4043;SDS011;2036;51.578;7.108;2023-11-21T06:06:00;38.47;;;20.17;;
4043;SDS011;2036;51.578;7.108;2023-11-21T06:08:25;45.13;;;20.00;;
4043;SDS011;2036;51.578;7.108;2023-11-21T06:10:51;41.03;;;19.63;;
4043;SDS011;2036;51.578;7.108;2023-11-21T06:13:17;36.67;;;18.93;;
4043;SDS011;2036;51.578;7.108;2023-11-21T06:15:49;36.83;;;18.50;;
4043;SDS011;2036;51.578;7.108;2023-11-21T06:18:16;35.40;;;17.73;;
4043;SDS011;2036;51.578;7.108;2023-11-21T06:20:44;36.93;;;18.07;;
4043;SDS011;2036;51.578;7.108;2023-11-21T06:23:13;35.07;;;18.20;;
4043;SDS011;2036;51.578;7.108;2023-11-21T06:25:39;34.67;;;19.17;;
4043;SDS011;2036;51.578;7.108;2023-11-21T06:28:05;37.00;;;18.80;;
4043;SDS011;2036;51.578;7.108;2023-11-21T06:30:31;34.27;;;18.13;;
4043;SDS011;2036;51.578;7.108;2023-11-21T06:32:57;34.00;;;17.97;;
4043;SDS011;2036;51.578;7.108;2023-11-21T06:35:22;32.33;;;17.70;;
4043;SDS011;2036;51.578;7.108;2023-11-21T06:37:48;38.97;;;18.50;;
4043;SDS011;2036;51.578;7.108;2023-11-21T06:40:16;39.57;;;19.40;;
4043;SDS011;2036;51.578;7.108;2023-11-21T06:42:43;39.03;;;19.63;;
4043;SDS011;2036;51.578;7.108;2023-11-21T06:45:09;34.90;;;19.20;;
4043;SDS011;2036;51.578;7.108;2023-11-21T06:47:36;38.23;;;19.50;;
4043;SDS011;2036;51.578;7.108;2023-11-21T06:50:03;36.30;;;18.13;;
4043;SDS011;2036;51.578;7.108;2023-11-21T06:52:29;39.13;;;20.00;;
4043;SDS011;2036;51.578;7.108;2023-11-21T06:54:55;37.00;;;19.33;;
4043;SDS011;2036;51.578;7.108;2023-11-21T06:57:22;39.87;;;20.40;;
4043;SDS011;2036;51.578;7.108;2023-11-21T06:59:49;51.60;;;22.57;;
4043;SDS011;2036;51.578;7.108;2023-11-21T07:02:15;46.00;;;22.20;;
4043;SDS011;2036;51.578;7.108;2023-11-21T07:04:43;56.73;;;22.63;;
4043;SDS011;2036;51.578;7.108;2023-11-21T07:07:11;54.47;;;23.97;;
4043;SDS011;2036;51.578;7.108;2023-11-21T07:09:37;55.07;;;26.17;;
4043;SDS011;2036;51.578;7.108;2023-11-21T07:12:04;68.17;;;28.37;;
4043;SDS011;2036;51.578;7.108;2023-11-21T07:14:32;48.97;;;26.13;;
